createdAt,value
2017-06-23T00:02:08.483Z,18.10
2017-06-23T00:04:36.855Z,21.53
2017-06-23T00:07:05.191Z,18.97
2017-06-23T00:09:33.480Z,16.80
2017-06-23T00:12:01.811Z,18.47
2017-06-23T00:14:30.872Z,18.63
2017-06-23T00:16:59.923Z,16.83
2017-06-23T00:19:28.699Z,18.43
2017-06-23T00:21:57.382Z,18.40
2017-06-23T00:24:27.022Z,17.37
2017-06-23T00:26:55.795Z,18.47
2017-06-23T00:29:24.095Z,20.50
2017-06-23T00:31:52.408Z,16.23
2017-06-23T00:34:22.099Z,18.10
2017-06-23T00:36:50.267Z,17.23
2017-06-23T00:39:18.555Z,16.70
2017-06-23T00:41:47.046Z,14.70
2017-06-23T00:44:16.474Z,14.10
2017-06-23T00:46:45.160Z,12.47
2017-06-23T00:49:13.518Z,12.90
2017-06-23T00:51:43.158Z,15.17
2017-06-23T00:54:11.323Z,16.30
2017-06-23T00:56:40.071Z,18.23
2017-06-23T00:59:09.168Z,16.63
2017-06-23T01:01:39.090Z,16.07
2017-06-23T01:04:08.459Z,16.27
2017-06-23T01:06:37.151Z,16.10
2017-06-23T01:09:05.456Z,15.97
2017-06-23T01:11:33.796Z,15.90
2017-06-23T01:14:02.076Z,17.37
2017-06-23T01:16:30.363Z,14.17
2017-06-23T01:18:58.698Z,14.20
2017-06-23T01:21:28.131Z,16.00
2017-06-23T01:23:57.191Z,15.57
2017-06-23T01:26:27.070Z,15.63
2017-06-23T01:28:55.367Z,16.27
2017-06-23T01:31:24.840Z,15.40
2017-06-23T01:33:53.246Z,16.90
2017-06-23T01:36:22.918Z,16.97
2017-06-23T01:38:51.490Z,17.20
2017-06-23T01:41:20.979Z,18.00
2017-06-23T01:43:50.031Z,16.40
2017-06-23T01:46:19.669Z,17.63
2017-06-23T01:48:49.387Z,19.23
2017-06-23T01:51:17.678Z,20.63
2017-06-23T01:53:45.966Z,16.80
2017-06-23T01:56:15.438Z,17.20
2017-06-23T01:58:43.727Z,17.80
2017-06-23T02:01:13.374Z,17.50
2017-06-23T02:03:42.043Z,20.80
2017-06-23T02:06:10.335Z,16.83
2017-06-23T02:08:38.661Z,21.23
2017-06-23T02:11:07.031Z,16.70
2017-06-23T02:13:36.694Z,18.17
2017-06-23T02:16:05.258Z,18.20
2017-06-23T02:18:33.674Z,16.63
2017-06-23T02:21:02.755Z,18.93
2017-06-23T02:23:32.394Z,15.37
2017-06-23T02:26:01.031Z,18.57
2017-06-23T02:28:29.325Z,18.07
2017-06-23T02:30:57.616Z,17.30
2017-06-23T02:33:25.960Z,15.33
2017-06-23T02:35:55.388Z,17.77
2017-06-23T02:38:25.583Z,19.00
2017-06-23T02:40:53.949Z,16.60
2017-06-23T02:43:22.298Z,18.17
2017-06-23T02:45:50.612Z,18.70
2017-06-23T02:48:20.131Z,14.40
2017-06-23T02:50:48.468Z,15.37
2017-06-23T02:53:16.783Z,20.00
2017-06-23T02:55:45.155Z,18.50
2017-06-23T02:58:13.480Z,16.83
2017-06-23T03:00:43.139Z,21.37
2017-06-23T03:03:11.771Z,18.60
2017-06-23T03:05:40.828Z,18.50
2017-06-23T03:08:09.139Z,16.20
2017-06-23T03:10:38.277Z,15.73
2017-06-23T03:13:19.119Z,15.70
2017-06-23T03:15:48.383Z,18.10
2017-06-23T03:18:17.070Z,15.67
2017-06-23T03:20:45.354Z,20.77
2017-06-23T03:23:14.460Z,19.07
2017-06-23T03:25:44.255Z,16.10
2017-06-23T03:28:12.542Z,19.97
2017-06-23T03:30:42.037Z,18.20
2017-06-23T03:33:10.360Z,17.03
2017-06-23T03:35:38.678Z,21.60
2017-06-23T03:38:07.350Z,17.93
2017-06-23T03:40:35.672Z,15.80
2017-06-23T03:43:04.376Z,18.20
2017-06-23T03:45:33.493Z,17.40
2017-06-23T03:48:03.158Z,17.17
2017-06-23T03:50:31.751Z,20.13
2017-06-23T03:53:00.871Z,16.50
2017-06-23T03:55:29.187Z,14.60
2017-06-23T03:57:57.478Z,18.70
2017-06-23T04:00:26.191Z,15.80
2017-06-23T04:02:55.288Z,23.77
2017-06-23T04:05:23.649Z,15.70
2017-06-23T04:07:52.023Z,20.23
2017-06-23T04:10:20.326Z,19.83
2017-06-23T04:12:48.614Z,16.53
2017-06-23T04:15:17.120Z,17.60
2017-06-23T04:17:46.553Z,18.67
2017-06-23T04:20:14.839Z,15.67
2017-06-23T04:22:43.616Z,21.70
2017-06-23T04:25:12.305Z,20.47
2017-06-23T04:27:41.391Z,16.87
2017-06-23T04:30:09.743Z,18.47
2017-06-23T04:32:38.039Z,20.80
2017-06-23T04:35:06.787Z,14.10
2017-06-23T04:37:35.134Z,17.23
2017-06-23T04:40:03.429Z,26.13
2017-06-23T04:42:31.719Z,12.83
2017-06-23T04:45:01.621Z,17.13
2017-06-23T04:47:29.907Z,18.20
2017-06-23T04:49:59.342Z,16.43
2017-06-23T04:52:30.300Z,18.00
2017-06-23T04:54:59.472Z,15.20
2017-06-23T04:57:28.172Z,15.17
2017-06-23T04:59:57.290Z,13.07
2017-06-23T05:02:26.714Z,14.03
2017-06-23T05:04:55.780Z,22.47
2017-06-23T05:07:25.555Z,14.50
2017-06-23T05:09:53.812Z,14.17
2017-06-23T05:12:23.680Z,21.00
2017-06-23T05:14:52.453Z,14.63
2017-06-23T05:17:22.112Z,11.13
2017-06-23T05:19:50.696Z,17.63
2017-06-23T05:22:19.831Z,17.77
2017-06-23T05:24:48.884Z,16.87
2017-06-23T05:27:17.197Z,16.00
2017-06-23T05:29:46.899Z,16.87
2017-06-23T05:32:15.488Z,16.93
2017-06-23T05:34:44.559Z,19.70
2017-06-23T05:37:13.674Z,17.73
2017-06-23T05:39:41.967Z,20.40
2017-06-23T05:42:10.270Z,16.20
2017-06-23T05:44:39.507Z,18.47
2017-06-23T05:47:07.827Z,15.20
2017-06-23T05:49:36.150Z,13.50
2017-06-23T05:52:05.391Z,21.83
2017-06-23T05:54:34.489Z,15.43
2017-06-23T05:57:02.783Z,16.80
2017-06-23T05:59:32.654Z,17.10
2017-06-23T06:02:00.961Z,14.67
2017-06-23T06:04:29.651Z,17.20
2017-06-23T06:06:58.759Z,16.47
2017-06-23T06:09:27.055Z,18.83
2017-06-23T06:11:55.338Z,16.47
2017-06-23T06:14:24.388Z,20.90
2017-06-23T06:16:53.471Z,19.00
2017-06-23T06:19:23.135Z,20.53
2017-06-23T06:21:52.108Z,19.93
2017-06-23T06:24:20.412Z,24.17
2017-06-23T06:26:48.709Z,20.30
2017-06-23T06:29:17.034Z,29.53
2017-06-23T06:31:46.094Z,21.10
2017-06-23T06:34:15.155Z,21.60
2017-06-23T06:36:44.250Z,21.20
2017-06-23T06:39:12.538Z,23.20
2017-06-23T06:41:40.831Z,20.60
2017-06-23T06:44:10.676Z,26.80
2017-06-23T06:46:38.978Z,21.57
2017-06-23T06:49:08.816Z,27.40
2017-06-23T06:51:37.172Z,22.67
2017-06-23T06:54:05.483Z,22.67
2017-06-23T06:56:33.805Z,23.33
2017-06-23T06:59:02.168Z,23.73
2017-06-23T07:01:31.587Z,26.57
2017-06-23T07:03:59.875Z,26.93
2017-06-23T07:06:29.574Z,26.43
2017-06-23T07:08:58.507Z,29.23
2017-06-23T07:11:27.575Z,27.23
2017-06-23T07:13:55.971Z,23.83
2017-06-23T07:16:25.614Z,33.07
2017-06-23T07:18:54.191Z,27.07
2017-06-23T07:21:22.537Z,33.47
2017-06-23T07:23:50.839Z,24.67
2017-06-23T07:26:20.259Z,24.80
2017-06-23T07:28:49.356Z,24.13
2017-06-23T07:31:17.642Z,25.40
2017-06-23T07:33:46.702Z,25.40
2017-06-23T07:36:15.040Z,26.00
2017-06-23T07:38:43.319Z,27.37
2017-06-23T07:41:12.957Z,26.77
2017-06-23T07:43:42.306Z,27.63
2017-06-23T07:46:12.103Z,24.60
2017-06-23T07:48:41.743Z,24.93
2017-06-23T07:51:10.355Z,25.67
2017-06-23T07:53:39.815Z,24.07
2017-06-23T07:56:08.900Z,23.03
2017-06-23T07:58:38.021Z,26.60
2017-06-23T08:01:07.847Z,26.60
2017-06-23T08:03:36.168Z,25.40
2017-06-23T08:06:06.021Z,23.10
2017-06-23T08:08:34.339Z,21.03
2017-06-23T08:11:02.627Z,22.13
2017-06-23T08:13:30.986Z,22.47
2017-06-23T08:15:59.559Z,21.80
2017-06-23T08:18:28.675Z,18.43
2017-06-23T08:20:57.022Z,18.77
2017-06-23T08:23:25.328Z,18.40
2017-06-23T08:25:54.402Z,19.23
2017-06-23T08:28:24.655Z,17.70
2017-06-23T08:30:54.111Z,15.70
2017-06-23T08:33:22.408Z,16.63
2017-06-23T08:35:51.596Z,19.17
2017-06-23T08:38:21.235Z,17.40
2017-06-23T08:40:49.793Z,16.07
2017-06-23T08:43:18.119Z,17.40
2017-06-23T08:45:46.406Z,16.60
2017-06-23T08:48:14.695Z,16.83
2017-06-23T08:50:43.030Z,22.20
2017-06-23T08:53:11.320Z,14.80
2017-06-23T08:55:39.637Z,20.97
2017-06-23T08:58:08.368Z,16.50
2017-06-23T09:00:36.675Z,17.23
2017-06-23T09:03:05.400Z,24.23
2017-06-23T09:05:35.265Z,17.30
2017-06-23T09:08:04.977Z,14.90
2017-06-23T09:10:34.526Z,14.97
2017-06-23T09:13:05.415Z,17.20
2017-06-23T09:15:33.989Z,17.43
2017-06-23T09:18:02.374Z,15.00
2017-06-23T09:20:30.706Z,14.17
2017-06-23T09:22:59.763Z,13.90
2017-06-23T09:25:29.560Z,12.80
2017-06-23T09:27:57.907Z,13.50
2017-06-23T09:30:26.195Z,17.07
2017-06-23T09:32:54.500Z,13.60
2017-06-23T09:35:23.233Z,13.73
2017-06-23T09:37:52.299Z,14.03
2017-06-23T09:40:21.011Z,16.93
2017-06-23T09:42:49.347Z,21.37
2017-06-23T09:45:17.636Z,13.00
2017-06-23T09:47:45.923Z,11.87
2017-06-23T09:50:15.398Z,11.90
2017-06-23T09:52:43.691Z,12.17
2017-06-23T09:55:11.971Z,12.40
2017-06-23T09:57:40.998Z,12.63
2017-06-23T10:00:09.309Z,12.60
2017-06-23T10:02:38.380Z,11.77
2017-06-23T10:05:07.526Z,11.60
2017-06-23T10:07:35.847Z,11.20
2017-06-23T10:10:04.149Z,11.67
2017-06-23T10:12:32.478Z,12.03
2017-06-23T10:15:02.271Z,16.30
2017-06-23T10:17:30.560Z,12.73
2017-06-23T10:19:59.007Z,10.80
2017-06-23T10:22:28.431Z,14.73
2017-06-23T10:24:56.719Z,10.50
2017-06-23T10:27:25.815Z,12.60
2017-06-23T10:29:55.611Z,11.73
2017-06-23T10:32:23.909Z,15.03
2017-06-23T10:34:53.402Z,10.70
2017-06-23T10:37:23.040Z,10.60
2017-06-23T10:39:51.204Z,10.70
2017-06-23T10:42:20.296Z,13.13
2017-06-23T10:44:48.571Z,9.87
2017-06-23T10:47:17.251Z,10.23
2017-06-23T10:49:45.578Z,14.40
2017-06-23T10:52:13.863Z,11.13
2017-06-23T10:54:42.146Z,8.90
2017-06-23T10:57:10.778Z,8.60
2017-06-23T10:59:40.222Z,9.50
2017-06-23T11:02:08.524Z,9.60
2017-06-23T11:04:38.372Z,9.70
2017-06-23T11:07:07.071Z,9.40
2017-06-23T11:09:35.402Z,10.13
2017-06-23T11:12:05.272Z,8.53
2017-06-23T11:14:33.571Z,8.37
2017-06-23T11:17:02.639Z,12.30
2017-06-23T11:19:30.959Z,9.70
2017-06-23T11:22:00.024Z,9.43
2017-06-23T11:24:29.043Z,8.97
2017-06-23T11:26:58.734Z,9.40
2017-06-23T11:29:27.278Z,8.33
2017-06-23T11:31:56.910Z,10.50
2017-06-23T11:34:31.679Z,7.00
2017-06-23T11:37:01.302Z,7.40
2017-06-23T11:39:29.851Z,9.43
2017-06-23T11:41:58.958Z,8.23
2017-06-23T11:44:28.012Z,11.13
2017-06-23T11:46:57.065Z,7.37
2017-06-23T11:49:25.419Z,9.93
2017-06-23T11:51:54.847Z,7.53
2017-06-23T11:54:24.555Z,9.37
2017-06-23T11:56:53.215Z,7.03
2017-06-23T11:59:21.502Z,6.60
2017-06-23T12:01:49.783Z,8.20
2017-06-23T12:04:18.111Z,9.73
2017-06-23T12:06:47.155Z,8.77
2017-06-23T12:09:15.647Z,5.97
2017-06-23T12:11:45.515Z,8.93
2017-06-23T12:14:15.134Z,6.67
2017-06-23T12:16:43.686Z,6.90
2017-06-23T12:19:13.368Z,6.93
2017-06-23T12:21:41.515Z,9.00
2017-06-23T12:24:11.139Z,6.40
2017-06-23T12:26:40.142Z,7.93
2017-06-23T12:29:08.433Z,9.30
2017-06-23T12:31:36.743Z,8.67
2017-06-23T12:34:06.486Z,8.63
2017-06-23T12:36:35.077Z,6.77
2017-06-23T12:39:04.762Z,5.83
2017-06-23T12:41:33.379Z,7.17
2017-06-23T12:44:02.787Z,8.10
2017-06-23T12:46:31.843Z,9.90
2017-06-23T12:49:01.311Z,6.60
2017-06-23T12:51:31.094Z,6.07
2017-06-23T12:53:59.382Z,6.93
2017-06-23T12:56:29.219Z,7.43
2017-06-23T12:58:57.495Z,7.53
2017-06-23T13:01:25.771Z,8.23
2017-06-23T13:03:54.117Z,10.20
2017-06-23T13:06:22.403Z,6.00
2017-06-23T13:08:50.687Z,5.90
2017-06-23T13:11:20.565Z,6.23
2017-06-23T13:13:48.843Z,9.17
2017-06-23T13:16:18.637Z,7.23
2017-06-23T13:18:48.310Z,6.37
2017-06-23T13:21:17.227Z,6.70
2017-06-23T13:23:45.507Z,11.00
2017-06-23T13:26:16.627Z,8.27
2017-06-23T13:28:45.919Z,11.93
2017-06-23T13:31:14.972Z,7.87
2017-06-23T13:33:44.952Z,11.60
2017-06-23T13:36:14.586Z,6.93
2017-06-23T13:38:43.139Z,10.10
2017-06-23T13:41:11.518Z,7.97
2017-06-23T13:43:39.843Z,7.83
2017-06-23T13:46:09.486Z,8.20
2017-06-23T13:48:37.710Z,6.87
2017-06-23T13:51:06.069Z,12.33
2017-06-23T13:53:34.436Z,6.83
2017-06-23T13:56:04.273Z,5.97
2017-06-23T13:58:32.551Z,9.50
2017-06-23T14:01:01.227Z,8.17
2017-06-23T14:03:30.344Z,5.87
2017-06-23T14:05:59.390Z,6.80
2017-06-23T14:08:28.438Z,6.07
2017-06-23T14:10:56.759Z,6.53
2017-06-23T14:13:25.087Z,6.97
2017-06-23T14:15:54.900Z,5.63
2017-06-23T14:18:23.235Z,6.77
2017-06-23T14:20:51.522Z,6.07
2017-06-23T14:23:19.799Z,8.20
2017-06-23T14:25:49.258Z,6.80
2017-06-23T14:28:17.544Z,8.53
2017-06-23T14:30:45.819Z,6.80
2017-06-23T14:33:14.239Z,7.37
2017-06-23T14:35:42.516Z,5.53
2017-06-23T14:38:10.787Z,4.93
2017-06-23T14:40:39.142Z,6.67
2017-06-23T14:43:08.592Z,5.40
2017-06-23T14:45:36.908Z,6.47
2017-06-23T14:48:05.269Z,7.53
2017-06-23T14:50:36.254Z,5.67
2017-06-23T14:53:04.443Z,5.30
2017-06-23T14:55:32.783Z,5.47
2017-06-23T14:58:01.069Z,6.03
2017-06-23T15:00:29.347Z,6.23
2017-06-23T15:03:00.659Z,5.93
2017-06-23T15:05:28.940Z,6.33
2017-06-23T15:07:57.982Z,5.10
2017-06-23T15:10:26.705Z,7.47
2017-06-23T15:12:55.398Z,5.23
2017-06-23T15:15:23.700Z,4.80
2017-06-23T15:17:52.031Z,6.17
2017-06-23T15:20:20.307Z,6.83
2017-06-23T15:22:48.583Z,5.10
2017-06-23T15:25:16.919Z,7.80
2017-06-23T15:27:45.196Z,8.10
2017-06-23T15:30:14.982Z,5.03
2017-06-23T15:32:43.322Z,6.20
2017-06-23T15:35:12.371Z,4.73
2017-06-23T15:37:42.011Z,5.50
2017-06-23T15:40:10.719Z,4.90
2017-06-23T15:42:39.016Z,5.83
2017-06-23T15:45:07.316Z,7.13
2017-06-23T15:47:37.191Z,5.10
2017-06-23T15:50:05.894Z,5.03
2017-06-23T15:52:34.562Z,5.87
2017-06-23T15:55:03.435Z,7.40
2017-06-23T15:57:31.724Z,6.10
2017-06-23T16:00:00.770Z,5.13
2017-06-23T16:02:30.259Z,6.60
2017-06-23T16:04:58.540Z,5.87
2017-06-23T16:07:26.821Z,4.23
2017-06-23T16:09:56.490Z,4.37
2017-06-23T16:12:25.089Z,5.33
2017-06-23T16:14:54.148Z,5.67
2017-06-23T16:17:22.622Z,8.93
2017-06-23T16:19:50.900Z,4.40
2017-06-23T16:22:19.175Z,7.30
2017-06-23T16:24:49.039Z,5.87
2017-06-23T16:27:17.315Z,5.87
2017-06-23T16:29:46.734Z,6.70
2017-06-23T16:32:15.291Z,5.20
2017-06-23T16:34:43.574Z,5.90
2017-06-23T16:37:11.847Z,3.97
2017-06-23T16:39:41.955Z,4.23
2017-06-23T16:42:11.583Z,4.20
2017-06-23T16:44:41.082Z,4.00
2017-06-23T16:47:10.654Z,4.07
2017-06-23T16:49:38.827Z,5.33
2017-06-23T16:52:08.631Z,5.13
2017-06-23T16:54:38.095Z,4.70
2017-06-23T16:57:07.747Z,4.73
2017-06-23T16:59:36.323Z,8.37
2017-06-23T17:02:06.046Z,4.70
2017-06-23T17:04:34.211Z,5.30
2017-06-23T17:07:03.838Z,4.67
2017-06-23T17:09:32.439Z,3.73
2017-06-23T17:12:00.720Z,4.80
2017-06-23T17:14:29.002Z,10.87
2017-06-23T17:16:57.330Z,4.37
2017-06-23T17:19:25.626Z,6.63
2017-06-23T17:21:53.945Z,30.70
2017-06-23T17:24:23.669Z,23.80
2017-06-23T17:26:52.247Z,29.47
2017-06-23T17:29:21.898Z,3.60
2017-06-23T17:31:50.494Z,4.17
2017-06-23T17:34:19.547Z,5.70
2017-06-23T17:36:47.838Z,5.43
2017-06-23T17:39:16.161Z,4.40
2017-06-23T17:41:44.438Z,5.30
2017-06-23T17:44:12.716Z,4.73
2017-06-23T17:46:42.975Z,5.10
2017-06-23T17:49:12.271Z,10.30
2017-06-23T17:51:40.577Z,5.00
2017-06-23T17:54:08.929Z,7.07
2017-06-23T17:56:37.225Z,3.47
2017-06-23T17:59:05.526Z,5.27
2017-06-23T18:01:34.032Z,5.53
2017-06-23T18:04:03.441Z,3.50
2017-06-23T18:06:31.720Z,5.83
2017-06-23T18:09:01.439Z,6.53
2017-06-23T18:11:29.987Z,4.03
2017-06-23T18:13:59.618Z,4.30
2017-06-23T18:16:28.582Z,4.33
2017-06-23T18:18:57.628Z,3.27
2017-06-23T18:21:27.259Z,3.57
2017-06-23T18:23:55.855Z,9.20
2017-06-23T18:26:24.156Z,5.00
2017-06-23T18:28:52.839Z,8.30
2017-06-23T18:31:21.163Z,5.60
2017-06-23T18:33:50.957Z,4.83
2017-06-23T18:36:19.632Z,3.60
2017-06-23T18:38:49.467Z,8.20
2017-06-23T18:41:17.747Z,2.90
2017-06-23T18:43:46.027Z,3.00
2017-06-23T18:46:16.278Z,7.43
2017-06-23T18:48:45.908Z,7.20
2017-06-23T18:51:14.071Z,6.33
2017-06-23T18:53:43.155Z,4.40
2017-06-23T18:56:11.435Z,4.53
2017-06-23T18:58:41.063Z,4.40
2017-06-23T19:01:09.673Z,3.93
2017-06-23T19:03:37.964Z,5.43
2017-06-23T19:06:06.286Z,3.77
2017-06-23T19:08:34.661Z,3.80
2017-06-23T19:11:04.091Z,3.87
2017-06-23T19:13:32.371Z,2.93
2017-06-23T19:16:01.475Z,5.53
2017-06-23T19:18:30.517Z,5.83
2017-06-23T19:20:58.791Z,6.23
2017-06-23T19:23:28.327Z,3.20
2017-06-23T19:25:57.962Z,5.07
2017-06-23T19:28:27.259Z,6.80
2017-06-23T19:30:56.959Z,5.10
2017-06-23T19:33:25.883Z,5.90
2017-06-23T19:35:55.518Z,8.10
2017-06-23T19:38:24.937Z,4.90
2017-06-23T19:40:53.638Z,11.70
2017-06-23T19:43:22.686Z,8.60
2017-06-23T19:45:51.791Z,8.17
2017-06-23T19:48:20.071Z,5.90
2017-06-23T19:50:49.855Z,6.30
2017-06-23T19:53:18.210Z,4.13
2017-06-23T19:55:47.251Z,5.00
2017-06-23T19:58:16.295Z,4.70
2017-06-23T20:00:44.651Z,7.43
2017-06-23T20:03:12.939Z,6.13
2017-06-23T20:05:42.722Z,5.07
2017-06-23T20:08:11.051Z,7.43
2017-06-23T20:10:39.353Z,10.40
2017-06-23T20:13:09.011Z,8.37
2017-06-23T20:15:38.624Z,7.43
2017-06-23T20:18:07.200Z,9.80
2017-06-23T20:20:36.863Z,5.50
2017-06-23T20:23:05.527Z,5.10
2017-06-23T20:25:33.849Z,7.10
2017-06-23T20:28:02.917Z,4.50
2017-06-23T20:30:31.636Z,4.10
2017-06-23T20:32:59.918Z,7.43
2017-06-23T20:35:28.195Z,17.03
2017-06-23T20:37:56.527Z,12.30
2017-06-23T20:40:24.835Z,7.80
2017-06-23T20:42:53.139Z,8.10
2017-06-23T20:45:21.463Z,6.80
2017-06-23T20:47:50.507Z,6.73
2017-06-23T20:50:18.791Z,5.70
2017-06-23T20:52:47.120Z,10.03
2017-06-23T20:55:15.410Z,13.80
2017-06-23T20:57:43.695Z,9.57
2017-06-23T21:00:13.223Z,6.33
2017-06-23T21:02:42.267Z,7.33
2017-06-23T21:05:11.329Z,13.23
2017-06-23T21:07:39.679Z,10.33
2017-06-23T21:10:07.971Z,7.07
2017-06-23T21:12:36.289Z,12.00
2017-06-23T21:15:05.772Z,8.07
2017-06-23T21:17:34.084Z,10.90
2017-06-23T21:20:02.388Z,10.80
2017-06-23T21:22:30.715Z,11.93
2017-06-23T21:24:58.999Z,6.07
2017-06-23T21:27:27.283Z,9.73
2017-06-23T21:29:56.738Z,7.33
2017-06-23T21:32:25.035Z,9.57
2017-06-23T21:34:53.347Z,8.47
2017-06-23T21:37:23.054Z,10.80
2017-06-23T21:39:51.607Z,7.80
2017-06-23T21:42:21.019Z,8.13
2017-06-23T21:44:50.139Z,5.90
2017-06-23T21:47:19.760Z,6.57
2017-06-23T21:49:49.051Z,7.33
2017-06-23T21:52:17.375Z,10.47
2017-06-23T21:54:45.662Z,7.23
2017-06-23T21:57:13.940Z,5.50
2017-06-23T21:59:43.771Z,5.97
2017-06-23T22:02:12.048Z,6.13
2017-06-23T22:04:40.343Z,6.70
2017-06-23T22:07:10.229Z,5.23
2017-06-23T22:09:38.539Z,9.13
2017-06-23T22:12:06.834Z,5.70
2017-06-23T22:14:35.195Z,5.03
2017-06-23T22:17:03.468Z,4.63
2017-06-23T22:19:32.507Z,8.50
2017-06-23T22:22:01.867Z,6.60
2017-06-23T22:24:30.547Z,7.47
2017-06-23T22:26:58.831Z,4.43
2017-06-23T22:29:27.158Z,5.00
2017-06-23T22:31:56.943Z,7.00
2017-06-23T22:34:25.251Z,4.10
2017-06-23T22:36:55.092Z,5.80
2017-06-23T22:39:23.251Z,5.97
2017-06-23T22:41:51.527Z,8.63
2017-06-23T22:44:20.791Z,6.33
2017-06-23T22:46:49.833Z,5.43
2017-06-23T22:49:18.114Z,8.37
2017-06-23T22:51:48.459Z,6.20
2017-06-23T22:54:16.746Z,6.27
2017-06-23T22:56:45.027Z,5.93
2017-06-23T22:59:13.351Z,6.07
2017-06-23T23:01:41.627Z,7.20
2017-06-23T23:04:10.688Z,4.40
2017-06-23T23:06:40.382Z,6.00
2017-06-23T23:09:08.539Z,7.60
2017-06-23T23:11:38.192Z,4.20
2017-06-23T23:14:06.425Z,10.50
2017-06-23T23:16:35.163Z,8.30
2017-06-23T23:19:03.459Z,9.10
2017-06-23T23:21:31.789Z,4.00
2017-06-23T23:24:00.067Z,4.90
2017-06-23T23:26:28.347Z,4.97
2017-06-23T23:28:56.818Z,5.40
2017-06-23T23:31:25.871Z,8.63
2017-06-23T23:33:54.934Z,9.67
2017-06-23T23:36:24.403Z,4.60
2017-06-23T23:38:52.685Z,6.13
2017-06-23T23:41:20.969Z,6.00
2017-06-23T23:43:49.382Z,7.20
2017-06-23T23:46:17.760Z,4.70
2017-06-23T23:48:46.435Z,6.07
2017-06-23T23:51:14.758Z,5.30
2017-06-23T23:53:44.380Z,5.23
2017-06-23T23:56:12.922Z,6.27
2017-06-23T23:58:41.243Z,4.93
